Terminal Aerodrome Forecast
Issued by NWS

Home | Current Version | Previous Version | Graphics & Text | Print | Product List | Glossary On
Versions: 1 2 3 4 5 6 7 8 9 10 11 12 13 14 15 16 17 18 19 20 21 22 23 24 25
000
FTUS43 KTOP 151500 AAA
TAFFOE
TAF AMD
KFOE 151523Z 1515/1612 20011KT P6SM SCT015 BKN080
      TEMPO 1516/1518 26015G22KT 4SM -RA BR BKN010
     FM151800 29016G24KT P6SM OVC012
     FM152200 30018G27KT P6SM OVC025=

USA.gov is the U.S. government's official web portal to all federal, state and local government web resources and services.